Toyomasa Maru — JJ3927 — position and weather

sailwx.info

Track history (hours):
 
Tides and Currents Weather Stations Pressure Air Temp Water Temp Dewpoint Dewpoint Depression Visibility Wind Speed Wind Dir Waves Ship Positions

Toyomasa Maru

Last reported at 2015-Jul-03 15:31 UTC. Time now 2015-Jul-03 15:38 UTC.
Position N 35°27' E 139°39'.

Length 101 m; draft 4.6 m.

Type: Tanker. MMSI: 431300401.

Date/timePositionNaut miles runAvg speedWind from/ knotsBaromVisibWave heightAir tempDewpointWater temp
2015-Jul-03 15:31N 35°27' E 139°39'0 0.0
2015-Jul-03 14:31N 35°27' E 139°39'0 0.0
2015-Jul-03 13:31N 35°27' E 139°39'0 0.0
2015-Jul-03 12:31N 35°27' E 139°39'0 0.0
2015-Jul-03 11:31N 35°27' E 139°39'0 0.0
2015-Jul-03 10:31N 35°27' E 139°39'0 0.0
2015-Jul-03 09:31N 35°27' E 139°39'0 0.0
2015-Jul-03 08:31N 35°27' E 139°39'1 1.3
2015-Jul-03 07:34N 35°27' E 139°41'4 4.3
2015-Jul-03 06:34N 35°28' E 139°46'3 2.5
2015-Jul-03 05:34N 35°30' E 139°45'0 0.1
2015-Jul-03 04:31N 35°30' E 139°45'0 0.0
2015-Jul-03 03:31N 35°30' E 139°45'0 0.0
2015-Jul-03 02:31N 35°30' E 139°45'0 0.0
2015-Jul-03 01:31N 35°30' E 139°45'2 1.7
2015-Jul-03 00:33N 35°30' E 139°43'6 5.4
2015-Jul-02 23:28N 35°24' E 139°45'0 0.1
2015-Jul-02 22:31N 35°24' E 139°45'0 0.0
2015-Jul-02 21:31N 35°24' E 139°45'0 0.0
2015-Jul-02 20:31N 35°24' E 139°45'0 0.1
2015-Jul-02 19:28N 35°24' E 139°46'0 0.0
2015-Jul-02 18:31N 35°24' E 139°46'0 0.0
2015-Jul-02 17:31N 35°24' E 139°46'0 0.0
2015-Jul-02 16:31N 35°24' E 139°46'0 0.0
2015-Jul-02 15:31N 35°24' E 139°46'0 0.1
2015-Jul-02 14:34N 35°24' E 139°45'10 9.9
2015-Jul-02 13:33N 35°30' E 139°55'5 4.9
2015-Jul-02 12:32N 35°28' E 140°01'0 0.0
2015-Jul-02 11:32N 35°28' E 140°01'0 0.0
2015-Jul-02 10:23N 35°28' E 140°01'0 0.0
2015-Jul-02 09:29N 35°28' E 140°01'0 0.0
2015-Jul-02 08:32N 35°28' E 140°01'0 0.0
2015-Jul-02 07:29N 35°28' E 140°01'6 6.3
2015-Jul-02 06:33N 35°29' E 139°54'1312.6
2015-Jul-02 05:33N 35°19' E 139°44'1313.0
2015-Jul-02 04:33N 35°06' E 139°45'1312.3
2015-Jul-02 03:31N 34°53' E 139°46'1211.6
2015-Jul-02 02:30N 34°53' E 140°01'1111.3
2015-Jul-02 01:33N 34°59' E 140°11'1611.5
2015-Jul-02 00:11N 35°08' E 140°27'812.0
2015-Jul-01 23:33N 35°14' E 140°33'1212.4
2015-Jul-01 22:33N 35°24' E 140°41'1312.1
2015-Jul-01 21:30N 35°35' E 140°50'2110.7
2015-Jul-01 19:30N 35°56' E 140°48'6 0.4
2015-Jul-01 03:23N 36°01' E 140°43'3 3.9
2015-Jul-01 02:29N 36°03' E 140°47'  
2015-Jun-26 12:18N 35°27' E 140°46'3813.7
2015-Jun-26 09:33N 34°59' E 140°14'1412.6
2015-Jun-26 08:25N 34°53' E 139°58'1310.4
2015-Jun-26 07:08N 34°58' E 139°43'712.5
2015-Jun-26 06:33N 35°05' E 139°44'1212.4
2015-Jun-26 05:33N 35°18' E 139°44'1111.3
2015-Jun-26 04:33N 35°29' E 139°47'2 2.3
2015-Jun-26 03:32N 35°30' E 139°45'0 0.0
2015-Jun-26 02:32N 35°30' E 139°45'0 0.0
2015-Jun-26 01:32N 35°30' E 139°45'0 0.0
2015-Jun-26 00:32N 35°30' E 139°45'1 1.3
2015-Jun-25 23:33N 35°30' E 139°44'5 5.0
2015-Jun-25 22:29N 35°25' E 139°45'0 0.0
2015-Jun-25 21:32N 35°25' E 139°45'0 0.0
2015-Jun-25 20:29N 35°25' E 139°45'0 0.1
2015-Jun-25 19:32N 35°25' E 139°46'0 0.0
2015-Jun-25 18:32N 35°25' E 139°46'0 0.0
2015-Jun-25 17:32N 35°25' E 139°46'0 0.0
2015-Jun-25 16:32N 35°25' E 139°46'0 0.0
2015-Jun-25 15:32N 35°25' E 139°46'0 0.0
2015-Jun-25 14:29N 35°25' E 139°46'0 0.1
2015-Jun-25 13:32N 35°25' E 139°46'0 0.0
2015-Jun-25 12:29N 35°25' E 139°46'0 0.0
2015-Jun-25 11:32N 35°25' E 139°46'0 0.0
2015-Jun-25 10:32N 35°25' E 139°46'0 0.0
2015-Jun-25 09:32N 35°25' E 139°46'3 3.2
2015-Jun-25 08:33N 35°27' E 139°48'1212.4
2015-Jun-25 07:33N 35°32' E 140°02'1 1.0
2015-Jun-25 06:26N 35°32' E 140°03'0 0.0
2015-Jun-25 05:26N 35°32' E 140°03'0 0.0
2015-Jun-25 04:29N 35°32' E 140°03'0 0.0
2015-Jun-25 03:32N 35°32' E 140°03'0 0.0
2015-Jun-25 02:32N 35°32' E 140°03'0 0.0
2015-Jun-25 01:33N 35°32' E 140°03'7 7.5
2015-Jun-25 00:33N 35°30' E 139°55'1312.6
2015-Jun-24 23:33N 35°20' E 139°45'1212.3
2015-Jun-24 22:34N 35°08' E 139°46'1212.2
2015-Jun-24 21:33N 34°56' E 139°45'1211.9
2015-Jun-24 20:30N 34°53' E 139°60'1313.6
2015-Jun-24 19:33N 34°60' E 140°13'1413.1
2015-Jun-24 18:30N 35°07' E 140°27'3812.1
2015-Jun-24 15:22N 35°38' E 140°54'1112.9
2015-Jun-24 14:32N 35°48' E 140°59'1313.1
2015-Jun-24 13:33N 36°01' E 141°01'4113.0
2015-Jun-24 10:22N 36°42' E 141°06'  
Track history (hours):
 
Tides and Currents Weather Stations Pressure Air Temp Water Temp Dewpoint Dewpoint Depression Visibility Wind Speed Wind Dir Waves Ship Positions

Toyomasa Maru

Last reported at 2015-Jul-03 15:31 UTC. Time now 2015-Jul-03 15:38 UTC.
Position N 35°27' E 139°39'.

Length 101 m; draft 4.6 m.

Type: Tanker. MMSI: 431300401.

Date/timePositionNaut miles runAvg speedWind from/ knotsBaromVisibWave heightAir tempDewpointWater temp
2015-Jul-03 15:31N 35°27' E 139°39'0 0.0
2015-Jul-03 14:31N 35°27' E 139°39'0 0.0
2015-Jul-03 13:31N 35°27' E 139°39'0 0.0
2015-Jul-03 12:31N 35°27' E 139°39'0 0.0
2015-Jul-03 11:31N 35°27' E 139°39'0 0.0
2015-Jul-03 10:31N 35°27' E 139°39'0 0.0
2015-Jul-03 09:31N 35°27' E 139°39'0 0.0
2015-Jul-03 08:31N 35°27' E 139°39'1 1.3
2015-Jul-03 07:34N 35°27' E 139°41'4 4.3
2015-Jul-03 06:34N 35°28' E 139°46'3 2.5
2015-Jul-03 05:34N 35°30' E 139°45'0 0.1
2015-Jul-03 04:31N 35°30' E 139°45'0 0.0
2015-Jul-03 03:31N 35°30' E 139°45'0 0.0
2015-Jul-03 02:31N 35°30' E 139°45'0 0.0
2015-Jul-03 01:31N 35°30' E 139°45'2 1.7
2015-Jul-03 00:33N 35°30' E 139°43'6 5.4
2015-Jul-02 23:28N 35°24' E 139°45'0 0.1
2015-Jul-02 22:31N 35°24' E 139°45'0 0.0
2015-Jul-02 21:31N 35°24' E 139°45'0 0.0
2015-Jul-02 20:31N 35°24' E 139°45'0 0.1
2015-Jul-02 19:28N 35°24' E 139°46'0 0.0
2015-Jul-02 18:31N 35°24' E 139°46'0 0.0
2015-Jul-02 17:31N 35°24' E 139°46'0 0.0
2015-Jul-02 16:31N 35°24' E 139°46'0 0.0
2015-Jul-02 15:31N 35°24' E 139°46'0 0.1
2015-Jul-02 14:34N 35°24' E 139°45'10 9.9
2015-Jul-02 13:33N 35°30' E 139°55'5 4.9
2015-Jul-02 12:32N 35°28' E 140°01'0 0.0
2015-Jul-02 11:32N 35°28' E 140°01'0 0.0
2015-Jul-02 10:23N 35°28' E 140°01'0 0.0
2015-Jul-02 09:29N 35°28' E 140°01'0 0.0
2015-Jul-02 08:32N 35°28' E 140°01'0 0.0
2015-Jul-02 07:29N 35°28' E 140°01'6 6.3
2015-Jul-02 06:33N 35°29' E 139°54'1312.6
2015-Jul-02 05:33N 35°19' E 139°44'1313.0
2015-Jul-02 04:33N 35°06' E 139°45'1312.3
2015-Jul-02 03:31N 34°53' E 139°46'1211.6
2015-Jul-02 02:30N 34°53' E 140°01'1111.3
2015-Jul-02 01:33N 34°59' E 140°11'1611.5
2015-Jul-02 00:11N 35°08' E 140°27'812.0
2015-Jul-01 23:33N 35°14' E 140°33'1212.4
2015-Jul-01 22:33N 35°24' E 140°41'1312.1
2015-Jul-01 21:30N 35°35' E 140°50'2110.7
2015-Jul-01 19:30N 35°56' E 140°48'6 0.4
2015-Jul-01 03:23N 36°01' E 140°43'3 3.9
2015-Jul-01 02:29N 36°03' E 140°47'  
2015-Jun-26 12:18N 35°27' E 140°46'3813.7
2015-Jun-26 09:33N 34°59' E 140°14'1412.6
2015-Jun-26 08:25N 34°53' E 139°58'1310.4
2015-Jun-26 07:08N 34°58' E 139°43'712.5
2015-Jun-26 06:33N 35°05' E 139°44'1212.4
2015-Jun-26 05:33N 35°18' E 139°44'1111.3
2015-Jun-26 04:33N 35°29' E 139°47'2 2.3
2015-Jun-26 03:32N 35°30' E 139°45'0 0.0
2015-Jun-26 02:32N 35°30' E 139°45'0 0.0
2015-Jun-26 01:32N 35°30' E 139°45'0 0.0
2015-Jun-26 00:32N 35°30' E 139°45'1 1.3
2015-Jun-25 23:33N 35°30' E 139°44'5 5.0
2015-Jun-25 22:29N 35°25' E 139°45'0 0.0
2015-Jun-25 21:32N 35°25' E 139°45'0 0.0
2015-Jun-25 20:29N 35°25' E 139°45'0 0.1
2015-Jun-25 19:32N 35°25' E 139°46'0 0.0
2015-Jun-25 18:32N 35°25' E 139°46'0 0.0
2015-Jun-25 17:32N 35°25' E 139°46'0 0.0
2015-Jun-25 16:32N 35°25' E 139°46'0 0.0
2015-Jun-25 15:32N 35°25' E 139°46'0 0.0
2015-Jun-25 14:29N 35°25' E 139°46'0 0.1
2015-Jun-25 13:32N 35°25' E 139°46'0 0.0
2015-Jun-25 12:29N 35°25' E 139°46'0 0.0
2015-Jun-25 11:32N 35°25' E 139°46'0 0.0
2015-Jun-25 10:32N 35°25' E 139°46'0 0.0
2015-Jun-25 09:32N 35°25' E 139°46'3 3.2
2015-Jun-25 08:33N 35°27' E 139°48'1212.4
2015-Jun-25 07:33N 35°32' E 140°02'1 1.0
2015-Jun-25 06:26N 35°32' E 140°03'0 0.0
2015-Jun-25 05:26N 35°32' E 140°03'0 0.0
2015-Jun-25 04:29N 35°32' E 140°03'0 0.0
2015-Jun-25 03:32N 35°32' E 140°03'0 0.0
2015-Jun-25 02:32N 35°32' E 140°03'0 0.0
2015-Jun-25 01:33N 35°32' E 140°03'7 7.5
2015-Jun-25 00:33N 35°30' E 139°55'1312.6
2015-Jun-24 23:33N 35°20' E 139°45'1212.3
2015-Jun-24 22:34N 35°08' E 139°46'1212.2
2015-Jun-24 21:33N 34°56' E 139°45'1211.9
2015-Jun-24 20:30N 34°53' E 139°60'1313.6
2015-Jun-24 19:33N 34°60' E 140°13'1413.1
2015-Jun-24 18:30N 35°07' E 140°27'3812.1
2015-Jun-24 15:22N 35°38' E 140°54'1112.9
2015-Jun-24 14:32N 35°48' E 140°59'1313.1
2015-Jun-24 13:33N 36°01' E 141°01'4113.0
2015-Jun-24 10:22N 36°42' E 141°06'  

Dump ship's entire track history